Time;durP1;ratioP1;P1;durP2;ratioP2;P2;SDS_P1;SDS_P2;PMS_P1;PMS_P2;Temp;Humidity;BMP_temperature;BMP_pressure;BME280_temperature;BME280_humidity;BME280_pressure;Samples;Min_cycle;Max_cycle;Signal;HPM_P1;HPM_P2
2021/08/26 00:00:24;;;;;;;7.37;5.33;;;15.40;99.90;;;;;;5090918;28;20699;-61
2021/08/26 00:05:47;;;;;;;8.40;5.73;;;15.40;99.90;;;;;;5091920;28;20597;-62
2021/08/26 00:08:19;;;;;;;10.50;5.73;;;15.40;99.90;;;;;;5092026;28;20235;-62
2021/08/26 00:10:46;;;;;;;8.47;5.23;;;15.50;99.90;;;;;;5091714;28;20591;-62
2021/08/26 00:13:14;;;;;;;8.67;5.57;;;15.50;99.90;;;;;;5091680;28;20220;-62
2021/08/26 00:15:43;;;;;;;8.00;5.70;;;15.50;99.90;;;;;;5091535;28;20227;-62
2021/08/26 00:18:10;;;;;;;9.47;5.80;;;15.50;99.90;;;;;;5091980;28;20448;-62
2021/08/26 00:20:38;;;;;;;8.50;5.43;;;15.40;99.90;;;;;;5091956;28;20226;-62
2021/08/26 00:23:05;;;;;;;7.80;5.53;;;15.30;99.90;;;;;;5091470;28;20659;-62
2021/08/26 00:25:32;;;;;;;8.00;5.40;;;15.20;99.90;;;;;;5091543;28;20628;-63
2021/08/26 00:27:59;;;;;;;7.67;5.50;;;15.20;99.90;;;;;;5091595;28;20413;-62
2021/08/26 00:30:26;;;;;;;7.87;5.63;;;15.10;99.90;;;;;;5091710;28;20208;-62
2021/08/26 00:32:53;;;;;;;7.63;5.40;;;15.10;99.90;;;;;;5091874;28;20221;-61
2021/08/26 00:35:19;;;;;;;7.70;5.30;;;15.00;99.90;;;;;;5091557;28;20212;-62
2021/08/26 00:37:47;;;;;;;7.17;5.30;;;14.90;99.90;;;;;;5091420;28;20211;-62
2021/08/26 00:40:15;;;;;;;8.10;5.60;;;14.90;99.90;;;;;;5091370;28;20616;-64
2021/08/26 00:42:42;;;;;;;7.97;5.47;;;14.90;99.90;;;;;;5091153;28;20209;-61
2021/08/26 00:45:10;;;;;;;7.77;5.53;;;14.80;99.90;;;;;;5091044;28;20223;-62
2021/08/26 00:47:38;;;;;;;8.10;5.63;;;14.70;99.90;;;;;;5091280;28;20581;-61
2021/08/26 00:50:05;;;;;;;10.23;6.00;;;14.70;99.90;;;;;;5091455;28;20235;-62
2021/08/26 00:52:32;;;;;;;9.43;5.97;;;14.60;99.90;;;;;;5091119;28;20228;-62
2021/08/26 00:55:00;;;;;;;8.47;5.70;;;14.50;99.90;;;;;;5091107;28;20211;-61
2021/08/26 00:57:27;;;;;;;10.57;6.13;;;14.50;99.90;;;;;;5091251;28;20234;-62
2021/08/26 00:59:54;;;;;;;9.30;5.50;;;14.50;99.90;;;;;;5090771;28;20216;-63
2021/08/26 01:02:31;;;;;;;7.80;5.43;;;14.50;99.90;;;;;;5091019;28;20224;-62
2021/08/26 01:05:07;;;;;;;9.27;5.60;;;14.50;99.90;;;;;;5090943;28;20203;-61
2021/08/26 01:07:43;;;;;;;7.77;5.47;;;14.50;99.90;;;;;;5091060;28;20477;-61
2021/08/26 01:10:16;;;;;;;6.40;5.10;;;14.50;99.90;;;;;;5091131;28;20208;-62
2021/08/26 01:12:46;;;;;;;6.33;4.93;;;14.50;99.90;;;;;;5090777;28;20310;-62
2021/08/26 01:15:13;;;;;;;7.40;5.07;;;14.50;99.90;;;;;;5090823;28;20207;-62
2021/08/26 01:17:45;;;;;;;8.77;5.73;;;14.50;99.90;;;;;;5090763;28;20208;-62
2021/08/26 01:20:12;;;;;;;7.63;5.67;;;14.50;99.90;;;;;;5090963;28;20390;-61
2021/08/26 01:22:39;;;;;;;7.07;5.37;;;14.40;99.90;;;;;;5091028;28;20224;-62
2021/08/26 01:25:09;;;;;;;8.43;5.83;;;14.40;99.90;;;;;;5090957;28;20215;-61
2021/08/26 01:27:41;;;;;;;7.70;5.70;;;14.40;99.90;;;;;;5090937;28;20204;-62
2021/08/26 01:30:10;;;;;;;10.30;6.03;;;14.50;99.90;;;;;;5090991;28;20208;-62
2021/08/26 01:32:38;;;;;;;7.47;5.63;;;14.40;99.90;;;;;;5090581;28;20224;-62
2021/08/26 01:35:06;;;;;;;8.47;5.63;;;14.40;99.90;;;;;;5090450;28;20212;-62
2021/08/26 01:37:33;;;;;;;8.43;5.50;;;14.40;99.90;;;;;;5090810;28;20208;-62
2021/08/26 01:40:00;;;;;;;7.37;5.53;;;14.30;99.90;;;;;;5090827;28;20208;-62
2021/08/26 01:42:27;;;;;;;7.57;5.50;;;14.30;99.90;;;;;;5090483;28;20236;-62
2021/08/26 01:44:56;;;;;;;8.53;5.73;;;14.30;99.90;;;;;;5090970;28;20583;-62
2021/08/26 01:47:24;;;;;;;7.83;5.77;;;14.20;99.90;;;;;;5090558;28;20227;-62
2021/08/26 01:49:52;;;;;;;6.97;5.17;;;14.20;99.90;;;;;;5090816;28;20204;-62
2021/08/26 01:52:20;;;;;;;9.63;5.90;;;14.20;99.90;;;;;;5090531;28;20595;-61
2021/08/26 01:54:50;;;;;;;7.83;5.77;;;14.10;99.90;;;;;;5090623;28;20209;-60
2021/08/26 01:57:17;;;;;;;7.27;5.53;;;14.10;99.90;;;;;;5090551;28;20741;-64
2021/08/26 01:59:44;;;;;;;9.23;5.53;;;14.10;99.90;;;;;;5090309;28;20261;-61
2021/08/26 02:02:12;;;;;;;7.93;5.20;;;14.00;99.90;;;;;;5090809;28;20232;-63
2021/08/26 02:04:39;;;;;;;8.70;5.73;;;14.00;99.90;;;;;;5090437;28;20208;-63
2021/08/26 02:07:06;;;;;;;8.40;5.93;;;13.90;99.90;;;;;;5090552;28;20226;-63
2021/08/26 02:09:32;;;;;;;11.93;6.03;;;13.90;99.90;;;;;;5090518;28;20633;-62
2021/08/26 02:11:59;;;;;;;7.53;5.83;;;13.90;99.90;;;;;;5090353;28;20220;-62
2021/08/26 02:14:26;;;;;;;9.87;5.83;;;13.80;99.90;;;;;;5090871;28;20604;-61
2021/08/26 02:16:53;;;;;;;7.77;5.87;;;13.80;99.90;;;;;;5090422;28;20668;-62
2021/08/26 02:19:21;;;;;;;7.40;5.47;;;13.80;99.90;;;;;;5090414;28;20207;-62
2021/08/26 02:21:48;;;;;;;7.80;5.60;;;13.80;99.90;;;;;;5090399;28;20230;-62
2021/08/26 02:24:15;;;;;;;8.97;6.27;;;13.70;99.90;;;;;;5091647;28;20226;-62
2021/08/26 02:26:42;;;;;;;10.57;6.17;;;13.70;99.90;;;;;;5094127;28;20208;-62
2021/08/26 02:29:09;;;;;;;8.80;6.33;;;13.70;99.90;;;;;;5093935;28;20299;-61
2021/08/26 02:31:35;;;;;;;8.30;5.43;;;13.70;99.90;;;;;;5094546;28;20232;-63
2021/08/26 02:34:02;;;;;;;8.03;5.57;;;13.70;99.90;;;;;;5094071;28;20235;-62
2021/08/26 02:36:30;;;;;;;10.43;6.57;;;13.70;99.90;;;;;;5094053;28;20216;-63
2021/08/26 02:38:57;;;;;;;8.53;5.83;;;13.70;99.90;;;;;;5093918;28;20204;-61
2021/08/26 02:41:23;;;;;;;8.53;5.87;;;13.70;99.90;;;;;;5093868;28;20236;-62
2021/08/26 02:43:50;;;;;;;10.23;6.13;;;13.80;99.90;;;;;;5093425;28;20196;-62
2021/08/26 02:46:17;;;;;;;11.10;6.70;;;13.80;99.90;;;;;;5093704;28;20211;-61
2021/08/26 02:48:44;;;;;;;9.83;6.20;;;13.90;99.90;;;;;;5093360;28;20610;-62
2021/08/26 02:51:11;;;;;;;7.93;5.27;;;13.90;99.90;;;;;;5093514;28;20224;-62
2021/08/26 02:53:39;;;;;;;8.67;6.57;;;14.00;99.90;;;;;;5093008;28;20227;-62
2021/08/26 02:56:05;;;;;;;10.70;6.53;;;14.00;99.90;;;;;;5093262;28;20226;-62
2021/08/26 02:58:32;;;;;;;8.77;5.90;;;14.00;99.90;;;;;;5093056;28;20203;-62
2021/08/26 03:00:59;;;;;;;8.20;5.67;;;14.10;99.90;;;;;;5093346;28;20220;-62
2021/08/26 03:03:26;;;;;;;8.03;5.77;;;14.10;99.90;;;;;;5093060;28;20204;-62
2021/08/26 03:05:52;;;;;;;7.07;5.47;;;14.00;99.90;;;;;;5093251;28;20205;-61
2021/08/26 03:08:19;;;;;;;9.43;5.90;;;14.20;99.90;;;;;;5092980;28;20208;-62
2021/08/26 03:10:47;;;;;;;8.50;5.87;;;14.20;99.90;;;;;;5092927;28;20232;-62
2021/08/26 03:13:14;;;;;;;8.87;5.77;;;14.20;99.90;;;;;;5093339;28;20228;-61
2021/08/26 03:15:41;;;;;;;10.03;5.83;;;14.30;99.90;;;;;;5093340;28;20204;-61
2021/08/26 03:18:08;;;;;;;8.90;6.30;;;14.30;99.90;;;;;;5093011;28;20215;-61
2021/08/26 03:20:38;;;;;;;10.43;6.23;;;14.30;99.90;;;;;;5093171;28;20570;-61
2021/08/26 03:23:05;;;;;;;7.83;5.93;;;14.30;99.90;;;;;;5092863;28;20200;-62
2021/08/26 03:25:32;;;;;;;6.87;5.73;;;14.40;99.90;;;;;;5093369;28;20208;-62
2021/08/26 03:28:00;;;;;;;7.60;5.93;;;14.40;99.90;;;;;;5092826;28;20204;-62
2021/08/26 03:30:27;;;;;;;9.43;5.87;;;14.40;99.90;;;;;;5092770;28;20287;-62
2021/08/26 03:32:54;;;;;;;10.87;5.70;;;14.50;99.90;;;;;;5092671;28;20294;-62
2021/08/26 03:35:20;;;;;;;8.70;5.80;;;14.50;99.90;;;;;;5092376;28;20212;-62
2021/08/26 03:37:47;;;;;;;7.80;5.70;;;14.50;99.90;;;;;;5092441;28;20200;-62
2021/08/26 03:40:14;;;;;;;7.40;6.03;;;14.60;99.90;;;;;;5093195;28;20524;-62
2021/08/26 03:42:40;;;;;;;9.43;6.13;;;14.60;99.90;;;;;;5092988;28;20235;-62
2021/08/26 03:45:10;;;;;;;9.33;6.17;;;14.70;99.90;;;;;;5092499;28;20208;-62
2021/08/26 03:47:36;;;;;;;8.90;6.73;;;14.80;99.90;;;;;;5092360;28;20623;-63
2021/08/26 03:50:04;;;;;;;10.60;6.50;;;14.80;99.90;;;;;;5092349;28;20583;-64
2021/08/26 03:52:30;;;;;;;11.47;7.37;;;14.90;99.90;;;;;;5092135;28;20599;-60
2021/08/26 03:54:57;;;;;;;11.07;6.80;;;15.00;99.90;;;;;;5092444;28;20632;-62
2021/08/26 03:57:23;;;;;;;9.03;7.07;;;15.10;99.90;;;;;;5092079;28;20692;-62
2021/08/26 03:59:50;;;;;;;10.10;7.50;;;15.20;99.90;;;;;;5092057;28;20631;-61
2021/08/26 04:02:18;;;;;;;11.07;6.83;;;15.20;99.90;;;;;;5091909;28;20578;-61
2021/08/26 04:04:45;;;;;;;9.90;7.20;;;15.20;99.90;;;;;;5092366;28;20200;-61
2021/08/26 04:07:12;;;;;;;9.93;7.07;;;15.20;99.90;;;;;;5092303;28;20208;-62
2021/08/26 04:09:39;;;;;;;9.23;7.37;;;15.30;99.90;;;;;;5091856;28;20590;-60
2021/08/26 04:12:06;;;;;;;12.97;8.57;;;15.40;99.90;;;;;;5091919;28;20280;-62
2021/08/26 04:14:32;;;;;;;14.03;10.00;;;15.40;99.90;;;;;;5091574;28;20220;-61
2021/08/26 04:16:59;;;;;;;11.70;7.83;;;15.40;99.90;;;;;;5091781;28;20261;-62
2021/08/26 04:19:27;;;;;;;10.37;7.90;;;15.40;99.90;;;;;;5091632;28;20604;-61
2021/08/26 04:21:54;;;;;;;8.20;6.93;;;15.50;99.90;;;;;;5091439;28;20232;-62
2021/08/26 04:24:20;;;;;;;10.43;6.87;;;15.50;99.90;;;;;;5091650;28;20208;-63
2021/08/26 04:26:47;;;;;;;10.30;7.63;;;15.50;99.90;;;;;;5091711;28;20209;-63
2021/08/26 04:29:14;;;;;;;8.67;7.00;;;15.60;99.90;;;;;;5091492;28;20208;-63
2021/08/26 04:31:41;;;;;;;11.70;7.90;;;15.60;99.90;;;;;;5091284;28;20231;-65
2021/08/26 04:34:08;;;;;;;11.03;7.57;;;15.60;99.90;;;;;;5091100;28;20220;-62
2021/08/26 04:36:36;;;;;;;11.83;7.50;;;15.60;99.90;;;;;;5091576;28;20215;-62
2021/08/26 04:39:03;;;;;;;13.50;8.97;;;15.70;99.90;;;;;;5091269;28;20266;-63
2021/08/26 04:41:30;;;;;;;13.23;7.97;;;15.80;99.90;;;;;;5091027;28;20231;-63
2021/08/26 04:43:56;;;;;;;11.73;8.20;;;15.80;99.90;;;;;;5091179;28;20208;-62
2021/08/26 04:46:23;;;;;;;9.77;7.90;;;15.80;99.90;;;;;;5090615;28;20441;-62
2021/08/26 04:48:49;;;;;;;10.73;7.87;;;15.80;99.90;;;;;;5091121;28;20214;-63
2021/08/26 04:51:16;;;;;;;9.47;7.43;;;15.90;99.90;;;;;;5091570;28;20228;-62
2021/08/26 04:53:44;;;;;;;11.13;7.40;;;15.90;99.90;;;;;;5091090;28;20224;-62
2021/08/26 04:56:11;;;;;;;13.10;9.70;;;16.00;99.90;;;;;;5091080;28;20237;-62
2021/08/26 04:58:39;;;;;;;9.57;6.60;;;16.00;99.90;;;;;;5091025;28;20262;-62
2021/08/26 05:01:06;;;;;;;13.47;7.20;;;16.00;99.90;;;;;;5090864;28;20224;-62
2021/08/26 05:03:32;;;;;;;8.80;6.90;;;16.10;99.90;;;;;;5090673;28;20204;-62
2021/08/26 05:05:59;;;;;;;12.50;7.30;;;16.20;99.90;;;;;;5091201;28;20211;-62
2021/08/26 05:08:26;;;;;;;12.13;7.80;;;16.20;99.90;;;;;;5090790;28;20671;-62
2021/08/26 05:10:54;;;;;;;11.73;7.27;;;16.20;99.90;;;;;;5090983;28;20232;-62
2021/08/26 05:13:20;;;;;;;10.17;7.03;;;16.20;99.90;;;;;;5090888;28;20203;-62
2021/08/26 05:15:47;;;;;;;14.50;8.03;;;16.30;99.90;;;;;;5090917;28;20208;-63
2021/08/26 05:18:14;;;;;;;14.00;7.67;;;16.30;99.90;;;;;;5090768;28;20683;-61
2021/08/26 05:20:41;;;;;;;9.90;6.67;;;16.40;99.90;;;;;;5090913;28;20227;-63
2021/08/26 05:23:07;;;;;;;11.47;8.13;;;16.40;99.90;;;;;;5090882;28;20208;-63
2021/08/26 05:25:35;;;;;;;14.83;9.37;;;16.40;99.90;;;;;;5090626;28;20687;-62
2021/08/26 05:28:03;;;;;;;11.73;7.07;;;16.50;99.90;;;;;;5090972;28;20231;-63
2021/08/26 05:30:30;;;;;;;13.03;6.97;;;16.60;99.90;;;;;;5090591;28;20215;-62
2021/08/26 05:32:57;;;;;;;9.43;6.70;;;16.60;99.90;;;;;;5090768;28;20211;-62
2021/08/26 05:35:24;;;;;;;13.97;8.73;;;16.70;99.90;;;;;;5090423;28;20603;-62
2021/08/26 05:37:51;;;;;;;17.30;12.50;;;16.80;99.90;;;;;;5090562;28;20215;-63
2021/08/26 05:40:17;;;;;;;11.00;7.90;;;16.80;99.90;;;;;;5090684;28;20211;-63
2021/08/26 05:42:44;;;;;;;11.77;8.77;;;16.90;99.90;;;;;;5090336;28;20218;-61
2021/08/26 05:45:12;;;;;;;10.52;8.18;;;17.00;99.90;;;;;;5090469;28;20279;-62
2021/08/26 05:47:39;;;;;;;9.97;7.60;;;17.00;99.90;;;;;;5090625;28;20208;-60
2021/08/26 05:50:07;;;;;;;12.07;7.70;;;17.10;99.90;;;;;;5090441;28;20307;-63
2021/08/26 05:52:33;;;;;;;9.07;6.90;;;17.20;99.90;;;;;;5090413;28;20228;-63
2021/08/26 05:55:00;;;;;;;12.70;7.10;;;17.20;99.90;;;;;;5090444;28;20633;-63
2021/08/26 05:57:27;;;;;;;12.03;9.00;;;17.30;99.90;;;;;;5090356;28;20659;-63
2021/08/26 05:59:53;;;;;;;9.98;6.88;;;17.40;99.90;;;;;;5092991;28;20223;-62
2021/08/26 06:02:21;;;;;;;8.80;6.43;;;17.40;99.90;;;;;;5094560;28;20224;-63
2021/08/26 06:04:48;;;;;;;9.33;7.07;;;17.50;99.90;;;;;;5094056;28;20652;-62
2021/08/26 06:07:15;;;;;;;9.25;6.82;;;17.50;99.90;;;;;;5094054;28;20684;-63
2021/08/26 06:09:41;;;;;;;8.00;6.63;;;17.60;99.90;;;;;;5093965;28;20200;-64
2021/08/26 06:12:08;;;;;;;12.57;8.13;;;17.60;99.90;;;;;;5094085;28;20228;-62
2021/08/26 06:14:35;;;;;;;10.00;6.93;;;17.60;99.90;;;;;;5094088;28;20235;-63
2021/08/26 06:17:02;;;;;;;11.02;7.75;;;17.60;99.90;;;;;;5094368;28;20261;-63
2021/08/26 06:19:29;;;;;;;12.30;7.57;;;17.60;99.90;;;;;;5094065;28;20200;-63
2021/08/26 06:21:56;;;;;;;12.68;7.35;;;17.60;99.90;;;;;;5094119;28;20220;-63
2021/08/26 06:24:23;;;;;;;13.07;8.40;;;17.70;99.90;;;;;;5094450;28;20219;-60
2021/08/26 06:26:50;;;;;;;11.13;8.13;;;17.70;99.90;;;;;;5094313;28;20278;-62
2021/08/26 06:29:16;;;;;;;10.15;7.40;;;17.80;99.90;;;;;;5094259;28;20203;-63
2021/08/26 06:31:44;;;;;;;13.40;7.50;;;17.70;99.90;;;;;;5094288;28;20260;-60
2021/08/26 06:34:11;;;;;;;9.75;6.78;;;17.70;99.90;;;;;;5093605;28;20828;-64
2021/08/26 06:36:39;;;;;;;12.88;7.90;;;17.80;99.90;;;;;;5093626;28;20215;-63
2021/08/26 06:39:06;;;;;;;10.65;6.85;;;17.80;99.90;;;;;;5093340;28;20208;-64
2021/08/26 06:41:32;;;;;;;12.18;8.00;;;17.80;99.90;;;;;;5093478;28;20238;-64
2021/08/26 06:43:59;;;;;;;11.93;8.07;;;17.90;99.90;;;;;;5093347;28;20205;-63
2021/08/26 06:46:26;;;;;;;10.07;8.27;;;17.90;99.90;;;;;;5093927;28;20216;-62
2021/08/26 06:48:54;;;;;;;19.77;8.55;;;17.90;99.90;;;;;;5093192;28;20204;-63
2021/08/26 06:51:21;;;;;;;15.27;8.75;;;18.00;99.90;;;;;;5092971;28;20231;-63
2021/08/26 06:53:49;;;;;;;11.77;7.85;;;18.00;99.90;;;;;;5092898;28;20247;-62
2021/08/26 06:56:16;;;;;;;13.65;8.20;;;18.10;99.90;;;;;;5093141;28;20216;-63
2021/08/26 06:58:44;;;;;;;13.52;8.07;;;18.20;99.90;;;;;;5093194;28;20208;-62
2021/08/26 07:01:10;;;;;;;15.23;8.15;;;18.30;99.90;;;;;;5093233;28;20220;-63
2021/08/26 07:03:37;;;;;;;10.30;7.97;;;18.30;99.90;;;;;;5093932;28;20553;-62
2021/08/26 07:06:04;;;;;;;10.52;8.65;;;18.40;99.90;;;;;;5093137;28;20222;-63
2021/08/26 07:08:30;;;;;;;14.98;9.38;;;18.40;99.90;;;;;;5093360;28;20238;-63
2021/08/26 07:10:58;;;;;;;14.45;9.27;;;18.40;99.90;;;;;;5092549;28;20251;-61
2021/08/26 07:13:25;;;;;;;11.60;8.95;;;18.30;99.90;;;;;;5092756;28;20212;-61
2021/08/26 07:15:52;;;;;;;9.40;7.97;;;18.30;99.90;;;;;;5092957;28;20305;-62
2021/08/26 07:18:19;;;;;;;19.30;9.13;;;18.30;99.90;;;;;;5092719;28;20212;-62
2021/08/26 07:20:46;;;;;;;15.40;9.90;;;18.30;99.90;;;;;;5093143;28;20228;-63
2021/08/26 07:23:12;;;;;;;16.45;10.50;;;18.30;99.90;;;;;;5092991;28;20211;-62
2021/08/26 07:25:39;;;;;;;11.00;8.80;;;18.30;99.90;;;;;;5092786;28;20200;-65
2021/08/26 07:28:07;;;;;;;14.27;9.18;;;18.30;99.90;;;;;;5092721;28;20207;-64
2021/08/26 07:30:34;;;;;;;11.27;8.00;;;18.20;99.90;;;;;;5092515;28;20208;-65
2021/08/26 07:33:00;;;;;;;11.90;8.60;;;18.10;99.90;;;;;;5092534;28;20698;-63
2021/08/26 07:35:27;;;;;;;11.95;8.40;;;18.00;99.90;;;;;;5092171;28;20227;-65
2021/08/26 07:37:54;;;;;;;11.13;8.75;;;18.10;99.90;;;;;;5092446;28;20600;-64
2021/08/26 07:40:21;;;;;;;9.93;8.77;;;17.80;99.90;;;;;;5092428;28;20585;-65
2021/08/26 07:42:47;;;;;;;10.55;9.23;;;17.60;99.90;;;;;;5092345;28;20211;-65
2021/08/26 07:45:15;;;;;;;12.48;8.98;;;17.70;99.90;;;;;;5092190;28;20200;-65
2021/08/26 07:47:42;;;;;;;12.70;8.75;;;17.60;99.90;;;;;;5092018;28;20611;-65
2021/08/26 07:50:11;;;;;;;11.75;9.13;;;17.50;99.90;;;;;;5092313;28;20212;-64
2021/08/26 07:52:38;;;;;;;14.05;10.18;;;17.60;99.90;;;;;;5092210;28;20226;-64
2021/08/26 07:55:06;;;;;;;14.93;10.55;;;17.50;99.90;;;;;;5091997;28;20228;-64
2021/08/26 07:57:33;;;;;;;11.48;9.40;;;17.50;99.90;;;;;;5092041;28;20219;-62
2021/08/26 08:00:00;;;;;;;11.68;10.15;;;17.40;99.90;;;;;;5092065;28;20215;-62
2021/08/26 08:02:28;;;;;;;14.00;10.63;;;17.40;99.90;;;;;;5091710;28;20228;-64
2021/08/26 08:04:55;;;;;;;12.57;10.15;;;17.30;99.90;;;;;;5091796;28;20208;-63
2021/08/26 08:07:22;;;;;;;12.20;10.38;;;17.50;99.90;;;;;;5092035;28;20564;-64
2021/08/26 08:09:48;;;;;;;11.38;9.80;;;17.40;99.90;;;;;;5091664;28;20208;-64
2021/08/26 08:12:15;;;;;;;14.30;11.35;;;17.40;99.90;;;;;;5091719;28;20231;-64
2021/08/26 08:14:43;;;;;;;12.55;10.50;;;17.40;99.90;;;;;;5091359;28;20216;-64
2021/08/26 08:17:09;;;;;;;13.30;10.02;;;17.40;99.90;;;;;;5091686;28;20639;-64
2021/08/26 08:19:38;;;;;;;13.40;9.93;;;17.50;99.90;;;;;;5091653;28;20618;-63
2021/08/26 08:22:04;;;;;;;14.57;10.10;;;17.50;99.90;;;;;;5090810;28;20231;-63
2021/08/26 08:24:31;;;;;;;13.13;10.07;;;17.40;99.90;;;;;;5091365;28;20715;-64
2021/08/26 08:26:58;;;;;;;12.77;10.88;;;17.30;99.90;;;;;;5091509;28;20569;-64
2021/08/26 08:29:24;;;;;;;11.82;9.93;;;17.30;99.90;;;;;;5091075;28;20208;-64
2021/08/26 08:31:51;;;;;;;13.88;10.80;;;17.40;99.90;;;;;;5091221;28;20237;-64
2021/08/26 08:34:18;;;;;;;13.30;10.00;;;17.40;99.90;;;;;;5091379;28;20291;-64
2021/08/26 08:36:46;;;;;;;15.55;10.52;;;17.40;99.90;;;;;;5091230;28;20249;-64
2021/08/26 08:39:12;;;;;;;11.82;10.40;;;17.40;99.90;;;;;;5091053;28;20208;-64
2021/08/26 08:41:39;;;;;;;12.90;10.32;;;17.40;99.90;;;;;;5091683;28;20239;-65
2021/08/26 08:44:06;;;;;;;13.55;9.98;;;17.40;99.90;;;;;;5091087;28;20208;-64
2021/08/26 08:46:34;;;;;;;11.63;10.43;;;17.40;99.90;;;;;;5091400;28;20200;-65
2021/08/26 08:49:02;;;;;;;11.63;10.43;;;17.50;99.90;;;;;;5091108;28;20285;-65
2021/08/26 08:51:30;;;;;;;11.90;9.65;;;17.50;99.90;;;;;;5091153;28;20293;-65
2021/08/26 08:53:58;;;;;;;12.18;9.68;;;17.40;99.90;;;;;;5091229;28;20208;-65
2021/08/26 08:56:26;;;;;;;11.07;9.75;;;17.40;99.90;;;;;;5091322;28;20224;-64
2021/08/26 08:58:57;;;;;;;12.33;10.00;;;17.50;99.90;;;;;;5091300;28;20231;-64
2021/08/26 09:01:23;;;;;;;11.70;10.02;;;17.50;99.90;;;;;;5091264;28;20220;-65
2021/08/26 09:03:50;;;;;;;13.20;10.75;;;17.60;99.90;;;;;;5090896;28;20204;-65
2021/08/26 09:06:17;;;;;;;11.30;9.82;;;17.80;99.90;;;;;;5091137;28;20207;-64
2021/08/26 09:09:03;;;;;;;11.55;9.45;;;18.00;99.90;;;;;;5090798;28;20208;-64
2021/08/26 09:11:30;;;;;;;12.57;9.23;;;18.10;99.90;;;;;;5091107;28;20251;-65
2021/08/26 09:13:57;;;;;;;10.55;9.00;;;18.20;99.90;;;;;;5090586;28;20486;-64
2021/08/26 09:16:36;;;;;;;10.23;9.15;;;18.20;99.90;;;;;;5090633;28;20605;-65
2021/08/26 09:19:20;;;;;;;11.18;9.20;;;18.30;99.90;;;;;;5090702;28;20691;-65
2021/08/26 09:21:47;;;;;;;8.93;8.02;;;18.50;99.90;;;;;;5090300;28;20228;-64
2021/08/26 09:24:15;;;;;;;11.20;9.32;;;18.70;99.90;;;;;;5090737;28;20291;-65
2021/08/26 09:26:46;;;;;;;10.13;8.98;;;18.90;99.90;;;;;;5091180;28;20200;-64
2021/08/26 09:29:13;;;;;;;11.90;9.50;;;19.00;99.90;;;;;;5090576;28;20659;-64
2021/08/26 09:31:39;;;;;;;10.77;8.63;;;19.00;99.90;;;;;;5090322;28;20715;-64
2021/08/26 09:34:10;;;;;;;10.27;7.72;;;18.90;99.90;;;;;;5094081;28;20203;-64
2021/08/26 09:36:39;;;;;;;9.68;8.00;;;18.90;99.90;;;;;;5094844;28;20224;-64
2021/08/26 09:39:08;;;;;;;8.38;7.53;;;18.80;99.90;;;;;;5094640;28;20200;-64
2021/08/26 09:41:46;;;;;;;9.02;8.13;;;18.80;99.90;;;;;;5108367;22;20228;-60
2021/08/26 09:44:14;;;;;;;9.57;7.75;;;18.70;99.90;;;;;;5094756;28;20208;-60
2021/08/26 09:46:41;;;;;;;9.77;8.30;;;18.70;99.90;;;;;;5094380;28;20197;-60
2021/08/26 09:49:10;;;;;;;9.18;8.18;;;18.70;99.90;;;;;;5094692;28;20353;-60
2021/08/26 09:51:38;;;;;;;8.23;7.43;;;18.60;99.90;;;;;;5094708;28;20224;-60
2021/08/26 09:54:05;;;;;;;9.60;7.95;;;18.50;99.90;;;;;;5094481;28;20204;-60
2021/08/26 09:56:40;;;;;;;9.45;8.45;;;18.40;99.90;;;;;;5094452;28;20224;-62
2021/08/26 09:59:07;;;;;;;9.20;8.30;;;18.40;99.90;;;;;;5092760;28;20208;-60
2021/08/26 10:01:37;;;;;;;10.55;8.60;;;18.20;99.90;;;;;;5094834;28;20247;-57
2021/08/26 10:04:25;;;;;;;9.48;8.52;;;18.10;99.90;;;;;;5094536;28;20261;-60
2021/08/26 10:06:52;;;;;;;9.52;8.38;;;18.10;99.90;;;;;;5094333;28;20231;-61
2021/08/26 10:09:19;;;;;;;9.93;8.93;;;18.10;99.90;;;;;;5093827;28;20253;-59
2021/08/26 10:11:48;;;;;;;10.57;8.90;;;18.10;99.90;;;;;;5093873;28;20232;-59
2021/08/26 10:14:15;;;;;;;9.63;8.25;;;18.10;99.90;;;;;;5093776;28;20666;-60
2021/08/26 10:16:43;;;;;;;9.13;8.18;;;18.00;99.90;;;;;;5094102;28;20228;-62
2021/08/26 10:19:14;;;;;;;12.90;9.18;;;18.10;99.90;;;;;;5093408;28;20219;-62
2021/08/26 10:21:41;;;;;;;10.90;9.27;;;18.10;99.90;;;;;;5093651;28;20224;-64
2021/08/26 10:24:08;;;;;;;14.13;8.80;;;18.20;99.90;;;;;;5093432;28;20290;-63
2021/08/26 10:26:37;;;;;;;9.88;7.10;;;18.30;99.90;;;;;;5088757;28;20793;-60
2021/08/26 10:29:07;;;;;;;8.82;6.97;;;18.20;99.90;;;;;;5093734;28;20255;-62
2021/08/26 10:31:36;;;;;;;7.75;6.10;;;18.30;99.90;;;;;;5094099;28;20228;-61
2021/08/26 10:34:21;;;;;;;6.60;6.00;;;18.20;99.90;;;;;;5093802;28;20208;-60
2021/08/26 10:37:23;;;;;;;9.95;7.35;;;18.40;99.90;;;;;;5093645;28;20241;-61
2021/08/26 10:39:51;;;;;;;5.50;5.00;;;19.00;99.90;;;;;;5090213;28;20208;-60
2021/08/26 10:42:44;;;;;;;6.40;5.43;;;19.50;99.90;;;;;;5094565;28;20228;-61
2021/08/26 10:45:19;;;;;;;5.55;5.03;;;19.90;99.90;;;;;;5093493;28;20192;-62
2021/08/26 10:48:11;;;;;;;6.25;5.65;;;20.30;99.90;;;;;;5093688;28;20297;-59
2021/08/26 10:50:39;;;;;;;5.30;4.80;;;20.40;99.90;;;;;;5093360;28;20863;-59
2021/08/26 10:53:08;;;;;;;5.30;4.80;;;20.40;99.90;;;;;;5092248;28;20341;-59
2021/08/26 10:55:39;;;;;;;6.00;5.50;;;20.50;99.90;;;;;;5093176;28;20235;-58
2021/08/26 10:58:34;;;;;;;7.57;5.18;;;20.80;99.90;;;;;;5093163;28;20209;-58
2021/08/26 11:01:04;;;;;;;5.32;4.82;;;20.90;99.90;;;;;;5070494;28;20204;-59
2021/08/26 11:03:53;;;;;;;6.28;5.55;;;20.90;99.90;;;;;;5092748;28;20254;-57
2021/08/26 11:06:40;;;;;;;6.53;5.53;;;21.00;99.90;;;;;;5093230;28;20604;-59
2021/08/26 11:09:26;;;;;;;5.07;4.57;;;21.20;99.90;;;;;;5092778;28;20299;-60
2021/08/26 11:11:58;;;;;;;5.13;4.50;;;21.30;99.90;;;;;;5092659;28;20228;-61
2021/08/26 11:14:26;;;;;;;6.10;5.50;;;21.30;99.90;;;;;;5092816;28;20300;-61
2021/08/26 11:16:57;;;;;;;5.85;4.78;;;21.40;99.90;;;;;;5092825;28;20220;-58
2021/08/26 11:19:30;;;;;;;4.70;4.15;;;21.60;99.90;;;;;;5092715;28;20215;-61
2021/08/26 11:22:03;;;;;;;5.00;4.50;;;21.70;99.90;;;;;;5092710;28;20583;-59
2021/08/26 11:24:51;;;;;;;7.03;4.38;;;22.00;99.90;;;;;;5091522;28;20663;-59
2021/08/26 11:27:19;;;;;;;5.00;4.47;;;22.20;99.90;;;;;;5092673;28;20253;-62
2021/08/26 11:29:47;;;;;;;6.43;4.88;;;22.50;99.90;;;;;;5092539;28;20208;-61
2021/08/26 11:32:16;;;;;;;4.95;4.43;;;22.50;99.90;;;;;;5092887;28;20220;-64
2021/08/26 11:34:46;;;;;;;6.85;4.78;;;22.30;99.90;;;;;;5092367;28;20212;-62
2021/08/26 11:37:15;;;;;;;5.50;4.93;;;22.20;99.90;;;;;;5092806;28;20209;-61
2021/08/26 11:39:44;;;;;;;5.80;4.82;;;22.50;99.90;;;;;;5092544;28;20590;-56
2021/08/26 11:42:22;;;;;;;5.32;4.75;;;23.20;99.90;;;;;;5092361;28;20243;-56
2021/08/26 11:45:04;;;;;;;5.15;4.65;;;23.60;99.90;;;;;;5092217;28;20204;-57
2021/08/26 11:47:34;;;;;;;4.93;4.40;;;23.70;99.90;;;;;;5092236;28;20243;-57
2021/08/26 11:50:10;;;;;;;7.93;5.15;;;23.70;99.90;;;;;;5092113;28;20219;-59
2021/08/26 11:52:37;;;;;;;5.13;4.53;;;23.50;99.90;;;;;;5091965;28;20281;-59
2021/08/26 11:55:04;;;;;;;6.32;4.85;;;23.30;99.90;;;;;;5092025;28;20207;-60
2021/08/26 11:57:31;;;;;;;7.03;5.13;;;23.10;99.90;;;;;;5091868;28;20231;-59
2021/08/26 12:00:07;;;;;;;5.82;4.65;;;23.00;99.90;;;;;;5091624;28;20204;-59
2021/08/26 12:02:36;;;;;;;6.80;4.90;;;22.90;99.90;;;;;;5092050;28;20228;-60
2021/08/26 12:05:08;;;;;;;6.95;5.47;;;22.90;99.90;;;;;;5091533;28;20204;-59
2021/08/26 12:07:36;;;;;;;7.22;4.57;;;22.80;99.90;;;;;;5086692;28;20207;-59
2021/08/26 12:10:09;;;;;;;7.15;4.65;;;23.00;99.90;;;;;;5091621;28;20208;-60
2021/08/26 12:12:36;;;;;;;7.63;5.57;;;23.00;99.90;;;;;;5090580;28;20236;-59
2021/08/26 12:15:02;;;;;;;7.47;5.75;;;22.70;99.90;;;;;;5071470;28;20211;-59
2021/08/26 12:17:29;;;;;;;8.63;5.85;;;22.80;99.90;;;;;;5071591;28;20231;-60
2021/08/26 12:19:57;;;;;;;6.40;5.65;;;23.00;99.90;;;;;;5071504;28;20245;-59
2021/08/26 12:22:26;;;;;;;8.05;5.65;;;23.20;99.90;;;;;;5071118;28;20712;-60
2021/08/26 12:24:55;;;;;;;8.75;5.40;;;23.50;99.90;;;;;;5071731;28;20220;-61
2021/08/26 12:27:23;;;;;;;7.50;5.38;;;23.50;99.90;;;;;;5071314;28;20197;-59
2021/08/26 12:29:51;;;;;;;8.07;5.65;;;23.70;99.90;;;;;;5071088;28;20205;-58
2021/08/26 12:32:25;;;;;;;7.93;5.00;;;23.70;99.90;;;;;;5070842;28;20229;-58
2021/08/26 12:34:52;;;;;;;6.55;5.10;;;23.80;99.90;;;;;;5071020;28;20208;-59
2021/08/26 12:37:20;;;;;;;8.85;5.43;;;23.80;99.90;;;;;;5070882;28;20224;-59
2021/08/26 12:40:00;;;;;;;7.45;5.55;;;23.60;99.90;;;;;;5071397;28;20250;-57
2021/08/26 12:42:27;;;;;;;8.07;5.32;;;23.30;99.90;;;;;;5070703;28;20235;-61
2021/08/26 12:44:54;;;;;;;6.05;4.93;;;23.30;99.90;;;;;;5070772;28;20209;-61
2021/08/26 12:47:27;;;;;;;5.82;4.50;;;23.40;99.90;;;;;;5070773;28;20291;-61
2021/08/26 12:49:56;;;;;;;6.80;4.38;;;23.40;99.90;;;;;;5070641;28;20205;-59